sensor_id;sensor_type;location;lat;lon;timestamp;temperature;humidity
41953;DHT22;63613;28.200;112.870;2023-12-22T00:00:43;7.30;40.70
41953;DHT22;63613;28.200;112.870;2023-12-22T00:03:18;7.30;40.70
41953;DHT22;63613;28.200;112.870;2023-12-22T00:05:48;7.30;40.70
41953;DHT22;63613;28.200;112.870;2023-12-22T00:08:19;7.30;40.60
41953;DHT22;63613;28.200;112.870;2023-12-22T00:10:50;7.30;40.60
41953;DHT22;63613;28.200;112.870;2023-12-22T00:13:20;7.30;40.50
41953;DHT22;63613;28.200;112.870;2023-12-22T00:15:50;7.30;40.50
41953;DHT22;63613;28.200;112.870;2023-12-22T00:18:19;7.30;40.60
41953;DHT22;63613;28.200;112.870;2023-12-22T00:20:48;7.30;40.50
41953;DHT22;63613;28.200;112.870;2023-12-22T00:23:17;7.30;40.40
41953;DHT22;63613;28.200;112.870;2023-12-22T00:25:48;7.30;40.40
41953;DHT22;63613;28.200;112.870;2023-12-22T00:28:17;7.30;40.40
41953;DHT22;63613;28.200;112.870;2023-12-22T00:30:46;7.30;40.50
41953;DHT22;63613;28.200;112.870;2023-12-22T00:33:16;7.30;40.50
41953;DHT22;63613;28.200;112.870;2023-12-22T00:35:45;7.30;40.50
41953;DHT22;63613;28.200;112.870;2023-12-22T00:38:14;7.30;40.50
41953;DHT22;63613;28.200;112.870;2023-12-22T00:40:43;7.30;40.60
41953;DHT22;63613;28.200;112.870;2023-12-22T00:43:13;7.30;40.60
41953;DHT22;63613;28.200;112.870;2023-12-22T00:45:42;7.40;40.50
41953;DHT22;63613;28.200;112.870;2023-12-22T00:48:11;7.40;40.70
41953;DHT22;63613;28.200;112.870;2023-12-22T00:50:59;7.40;40.60
41953;DHT22;63613;28.200;112.870;2023-12-22T00:53:28;7.40;40.60
41953;DHT22;63613;28.200;112.870;2023-12-22T00:55:57;7.40;40.60
41953;DHT22;63613;28.200;112.870;2023-12-22T00:58:26;7.40;40.50
41953;DHT22;63613;28.200;112.870;2023-12-22T01:00:56;7.40;40.40
41953;DHT22;63613;28.200;112.870;2023-12-22T01:03:25;7.40;40.40
41953;DHT22;63613;28.200;112.870;2023-12-22T01:05:54;7.40;40.30
41953;DHT22;63613;28.200;112.870;2023-12-22T01:08:24;7.40;40.30
41953;DHT22;63613;28.200;112.870;2023-12-22T01:10:53;7.60;40.50
41953;DHT22;63613;28.200;112.870;2023-12-22T01:13:23;7.70;41.40
41953;DHT22;63613;28.200;112.870;2023-12-22T01:15:52;7.90;43.20
41953;DHT22;63613;28.200;112.870;2023-12-22T01:18:21;8.00;43.80
41953;DHT22;63613;28.200;112.870;2023-12-22T01:20:52;8.20;44.40
41953;DHT22;63613;28.200;112.870;2023-12-22T01:23:21;8.40;44.70
41953;DHT22;63613;28.200;112.870;2023-12-22T01:25:52;8.40;45.00
41953;DHT22;63613;28.200;112.870;2023-12-22T01:28:22;8.50;45.10
41953;DHT22;63613;28.200;112.870;2023-12-22T01:30:52;8.70;45.10
41953;DHT22;63613;28.200;112.870;2023-12-22T01:33:21;8.80;44.70
41953;DHT22;63613;28.200;112.870;2023-12-22T01:35:51;8.70;43.70
41953;DHT22;63613;28.200;112.870;2023-12-22T01:38:20;8.70;43.00
41953;DHT22;63613;28.200;112.870;2023-12-22T01:40:50;8.70;42.70
41953;DHT22;63613;28.200;112.870;2023-12-22T01:43:19;8.60;42.30
41953;DHT22;63613;28.200;112.870;2023-12-22T01:45:54;8.60;41.50
41953;DHT22;63613;28.200;112.870;2023-12-22T01:48:25;8.50;39.90
41953;DHT22;63613;28.200;112.870;2023-12-22T01:50:56;8.50;39.60
41953;DHT22;63613;28.200;112.870;2023-12-22T01:53:28;8.50;39.10
41953;DHT22;63613;28.200;112.870;2023-12-22T01:56:17;8.50;39.00
41953;DHT22;63613;28.200;112.870;2023-12-22T01:58:46;8.60;38.60
41953;DHT22;63613;28.200;112.870;2023-12-22T02:01:16;8.50;38.30
41953;DHT22;63613;28.200;112.870;2023-12-22T02:03:46;8.50;38.10
41953;DHT22;63613;28.200;112.870;2023-12-22T02:06:19;8.50;39.00
41953;DHT22;63613;28.200;112.870;2023-12-22T02:08:49;8.50;40.60
41953;DHT22;63613;28.200;112.870;2023-12-22T02:11:18;8.50;41.30
41953;DHT22;63613;28.200;112.870;2023-12-22T02:13:47;8.50;42.40
41953;DHT22;63613;28.200;112.870;2023-12-22T02:16:31;8.50;43.30
41953;DHT22;63613;28.200;112.870;2023-12-22T02:19:27;8.50;43.60
41953;DHT22;63613;28.200;112.870;2023-12-22T02:22:04;8.50;44.00
41953;DHT22;63613;28.200;112.870;2023-12-22T02:24:33;8.50;44.10
41953;DHT22;63613;28.200;112.870;2023-12-22T02:27:15;8.50;44.20
41953;DHT22;63613;28.200;112.870;2023-12-22T02:29:58;8.50;44.50
41953;DHT22;63613;28.200;112.870;2023-12-22T02:32:33;8.50;44.50
41953;DHT22;63613;28.200;112.870;2023-12-22T02:35:08;8.60;44.10
41953;DHT22;63613;28.200;112.870;2023-12-22T02:37:41;8.80;46.50
41953;DHT22;63613;28.200;112.870;2023-12-22T02:40:10;9.10;48.60
41953;DHT22;63613;28.200;112.870;2023-12-22T02:42:40;9.30;48.00
41953;DHT22;63613;28.200;112.870;2023-12-22T02:45:29;9.50;47.30
41953;DHT22;63613;28.200;112.870;2023-12-22T02:48:00;9.70;46.90
41953;DHT22;63613;28.200;112.870;2023-12-22T02:50:29;9.90;47.10
41953;DHT22;63613;28.200;112.870;2023-12-22T02:52:58;10.00;47.10
41953;DHT22;63613;28.200;112.870;2023-12-22T02:55:28;10.30;47.00
41953;DHT22;63613;28.200;112.870;2023-12-22T02:57:57;10.50;46.70
41953;DHT22;63613;28.200;112.870;2023-12-22T03:00:27;10.60;46.50
41953;DHT22;63613;28.200;112.870;2023-12-22T03:02:56;10.90;46.30
41953;DHT22;63613;28.200;112.870;2023-12-22T03:05:25;11.10;46.10
41953;DHT22;63613;28.200;112.870;2023-12-22T03:07:54;11.30;45.70
41953;DHT22;63613;28.200;112.870;2023-12-22T03:10:23;11.40;45.20
41953;DHT22;63613;28.200;112.870;2023-12-22T03:12:53;11.60;45.10
41953;DHT22;63613;28.200;112.870;2023-12-22T03:15:22;11.80;44.50
41953;DHT22;63613;28.200;112.870;2023-12-22T03:17:52;11.90;44.30
41953;DHT22;63613;28.200;112.870;2023-12-22T03:20:22;12.10;44.10
41953;DHT22;63613;28.200;112.870;2023-12-22T03:23:10;12.20;44.00
41953;DHT22;63613;28.200;112.870;2023-12-22T03:25:40;12.30;43.70
41953;DHT22;63613;28.200;112.870;2023-12-22T03:28:09;12.50;43.10
41953;DHT22;63613;28.200;112.870;2023-12-22T03:30:39;12.60;42.70
41953;DHT22;63613;28.200;112.870;2023-12-22T03:33:47;12.70;42.70
41953;DHT22;63613;28.200;112.870;2023-12-22T03:36:16;12.80;42.60
41953;DHT22;63613;28.200;112.870;2023-12-22T03:38:45;12.90;42.50
41953;DHT22;63613;28.200;112.870;2023-12-22T03:41:14;13.00;42.30
41953;DHT22;63613;28.200;112.870;2023-12-22T03:43:44;13.10;42.30
41953;DHT22;63613;28.200;112.870;2023-12-22T03:46:13;13.20;42.70
41953;DHT22;63613;28.200;112.870;2023-12-22T03:48:42;13.20;43.10
41953;DHT22;63613;28.200;112.870;2023-12-22T03:51:12;13.40;43.10
41953;DHT22;63613;28.200;112.870;2023-12-22T03:53:42;13.40;42.50
41953;DHT22;63613;28.200;112.870;2023-12-22T03:56:12;13.60;42.20
41953;DHT22;63613;28.200;112.870;2023-12-22T03:58:59;13.60;42.30
41953;DHT22;63613;28.200;112.870;2023-12-22T04:01:29;13.80;42.70
41953;DHT22;63613;28.200;112.870;2023-12-22T04:03:58;13.80;42.10
41953;DHT22;63613;28.200;112.870;2023-12-22T04:06:27;13.90;42.60
41953;DHT22;63613;28.200;112.870;2023-12-22T04:08:58;13.80;42.00
41953;DHT22;63613;28.200;112.870;2023-12-22T04:11:46;13.60;41.80
41953;DHT22;63613;28.200;112.870;2023-12-22T04:14:15;13.50;41.70
41953;DHT22;63613;28.200;112.870;2023-12-22T04:16:45;13.40;41.10
41953;DHT22;63613;28.200;112.870;2023-12-22T04:19:16;13.40;40.40
41953;DHT22;63613;28.200;112.870;2023-12-22T04:21:45;13.30;40.10
41953;DHT22;63613;28.200;112.870;2023-12-22T04:24:14;13.30;39.80
41953;DHT22;63613;28.200;112.870;2023-12-22T04:26:43;13.20;39.60
41953;DHT22;63613;28.200;112.870;2023-12-22T04:29:13;13.10;39.20
41953;DHT22;63613;28.200;112.870;2023-12-22T04:31:43;13.00;39.70
41953;DHT22;63613;28.200;112.870;2023-12-22T04:34:15;12.90;39.70
41953;DHT22;63613;28.200;112.870;2023-12-22T04:36:44;12.80;39.20
41953;DHT22;63613;28.200;112.870;2023-12-22T04:39:14;12.70;39.00
41953;DHT22;63613;28.200;112.870;2023-12-22T04:41:44;12.60;38.10
41953;DHT22;63613;28.200;112.870;2023-12-22T04:44:13;12.40;37.80
41953;DHT22;63613;28.200;112.870;2023-12-22T04:46:44;12.30;39.00
41953;DHT22;63613;28.200;112.870;2023-12-22T04:49:13;12.30;38.60
41953;DHT22;63613;28.200;112.870;2023-12-22T04:51:42;12.30;38.70
41953;DHT22;63613;28.200;112.870;2023-12-22T04:54:12;12.20;38.70
41953;DHT22;63613;28.200;112.870;2023-12-22T04:56:41;12.10;38.30
41953;DHT22;63613;28.200;112.870;2023-12-22T04:59:10;12.00;37.50
41953;DHT22;63613;28.200;112.870;2023-12-22T05:01:40;11.90;37.30
41953;DHT22;63613;28.200;112.870;2023-12-22T05:04:10;11.90;37.10
41953;DHT22;63613;28.200;112.870;2023-12-22T05:06:41;11.90;36.70
41953;DHT22;63613;28.200;112.870;2023-12-22T05:09:11;11.90;37.00
41953;DHT22;63613;28.200;112.870;2023-12-22T05:11:40;11.80;36.90
41953;DHT22;63613;28.200;112.870;2023-12-22T05:14:11;11.70;37.20
41953;DHT22;63613;28.200;112.870;2023-12-22T05:16:40;11.70;36.90
41953;DHT22;63613;28.200;112.870;2023-12-22T05:19:10;11.60;36.80
41953;DHT22;63613;28.200;112.870;2023-12-22T05:21:40;11.60;37.00
41953;DHT22;63613;28.200;112.870;2023-12-22T05:24:09;11.40;36.60
41953;DHT22;63613;28.200;112.870;2023-12-22T05:26:39;11.40;35.70
41953;DHT22;63613;28.200;112.870;2023-12-22T05:29:08;11.40;36.10
41953;DHT22;63613;28.200;112.870;2023-12-22T05:31:41;11.40;37.30
41953;DHT22;63613;28.200;112.870;2023-12-22T05:34:10;11.60;38.10
41953;DHT22;63613;28.200;112.870;2023-12-22T05:36:40;11.90;38.60
41953;DHT22;63613;28.200;112.870;2023-12-22T05:39:10;12.10;39.70
41953;DHT22;63613;28.200;112.870;2023-12-22T05:41:40;12.40;40.10
41953;DHT22;63613;28.200;112.870;2023-12-22T05:44:10;12.60;40.70
41953;DHT22;63613;28.200;112.870;2023-12-22T05:46:39;12.90;40.70
41953;DHT22;63613;28.200;112.870;2023-12-22T05:49:46;13.10;40.20
41953;DHT22;63613;28.200;112.870;2023-12-22T05:52:15;13.40;40.10
41953;DHT22;63613;28.200;112.870;2023-12-22T05:54:45;13.60;39.90
41953;DHT22;63613;28.200;112.870;2023-12-22T05:57:14;13.70;39.90
41953;DHT22;63613;28.200;112.870;2023-12-22T05:59:43;13.90;40.00
41953;DHT22;63613;28.200;112.870;2023-12-22T06:02:12;14.10;40.30
41953;DHT22;63613;28.200;112.870;2023-12-22T06:04:41;14.30;40.00
41953;DHT22;63613;28.200;112.870;2023-12-22T06:07:13;14.40;39.80
41953;DHT22;63613;28.200;112.870;2023-12-22T06:09:42;14.70;39.80
41953;DHT22;63613;28.200;112.870;2023-12-22T06:12:11;15.10;38.60
41953;DHT22;63613;28.200;112.870;2023-12-22T06:14:40;15.40;38.60
41953;DHT22;63613;28.200;112.870;2023-12-22T06:17:10;15.70;38.40
41953;DHT22;63613;28.200;112.870;2023-12-22T06:19:40;16.00;38.20
41953;DHT22;63613;28.200;112.870;2023-12-22T06:22:09;16.40;37.80
41953;DHT22;63613;28.200;112.870;2023-12-22T06:25:16;16.60;37.30
41953;DHT22;63613;28.200;112.870;2023-12-22T06:27:46;16.90;36.90
41953;DHT22;63613;28.200;112.870;2023-12-22T06:30:16;17.10;36.50
41953;DHT22;63613;28.200;112.870;2023-12-22T06:32:45;17.60;36.20
41953;DHT22;63613;28.200;112.870;2023-12-22T06:35:15;17.80;35.40
41953;DHT22;63613;28.200;112.870;2023-12-22T06:37:44;18.10;34.90
41953;DHT22;63613;28.200;112.870;2023-12-22T06:40:14;18.40;34.80
41953;DHT22;63613;28.200;112.870;2023-12-22T06:42:44;18.70;34.20
41953;DHT22;63613;28.200;112.870;2023-12-22T06:45:13;19.10;33.80
41953;DHT22;63613;28.200;112.870;2023-12-22T06:47:42;19.40;33.20
41953;DHT22;63613;28.200;112.870;2023-12-22T06:50:12;19.50;32.60
41953;DHT22;63613;28.200;112.870;2023-12-22T06:52:41;18.30;33.40
41953;DHT22;63613;28.200;112.870;2023-12-22T06:55:11;17.50;34.50
41953;DHT22;63613;28.200;112.870;2023-12-22T06:57:40;17.00;35.40
41953;DHT22;63613;28.200;112.870;2023-12-22T07:00:11;16.80;35.70
41953;DHT22;63613;28.200;112.870;2023-12-22T07:02:40;16.40;35.90
41953;DHT22;63613;28.200;112.870;2023-12-22T07:07:56;16.00;36.50
41953;DHT22;63613;28.200;112.870;2023-12-22T07:10:25;15.80;36.60
41953;DHT22;63613;28.200;112.870;2023-12-22T07:12:54;15.70;36.60
41953;DHT22;63613;28.200;112.870;2023-12-22T07:15:25;15.50;36.70
41953;DHT22;63613;28.200;112.870;2023-12-22T07:17:56;15.40;36.60
41953;DHT22;63613;28.200;112.870;2023-12-22T07:20:26;15.20;36.80
41953;DHT22;63613;28.200;112.870;2023-12-22T07:22:55;15.10;37.40
41953;DHT22;63613;28.200;112.870;2023-12-22T07:25:24;14.90;36.70
41953;DHT22;63613;28.200;112.870;2023-12-22T07:27:54;14.70;37.00
41953;DHT22;63613;28.200;112.870;2023-12-22T07:30:23;14.60;37.00
41953;DHT22;63613;28.200;112.870;2023-12-22T07:32:53;14.40;36.80
41953;DHT22;63613;28.200;112.870;2023-12-22T07:35:22;14.30;36.50
41953;DHT22;63613;28.200;112.870;2023-12-22T07:38:11;14.10;36.90
41953;DHT22;63613;28.200;112.870;2023-12-22T07:40:40;14.00;37.30
41953;DHT22;63613;28.200;112.870;2023-12-22T07:43:10;13.90;38.10
41953;DHT22;63613;28.200;112.870;2023-12-22T07:45:40;13.80;38.30
41953;DHT22;63613;28.200;112.870;2023-12-22T07:48:10;13.70;38.00
41953;DHT22;63613;28.200;112.870;2023-12-22T07:50:40;13.50;38.20
41953;DHT22;63613;28.200;112.870;2023-12-22T07:53:11;13.40;38.60
41953;DHT22;63613;28.200;112.870;2023-12-22T07:55:40;13.40;38.80
41953;DHT22;63613;28.200;112.870;2023-12-22T07:58:09;13.30;38.90
41953;DHT22;63613;28.200;112.870;2023-12-22T08:00:39;13.10;38.70
41953;DHT22;63613;28.200;112.870;2023-12-22T08:03:09;13.10;38.60
41953;DHT22;63613;28.200;112.870;2023-12-22T08:05:38;13.00;38.10
41953;DHT22;63613;28.200;112.870;2023-12-22T08:08:07;12.90;37.70
41953;DHT22;63613;28.200;112.870;2023-12-22T08:10:36;12.90;38.20
41953;DHT22;63613;28.200;112.870;2023-12-22T08:13:07;12.80;39.20
41953;DHT22;63613;28.200;112.870;2023-12-22T08:15:36;12.70;39.00
41953;DHT22;63613;28.200;112.870;2023-12-22T08:18:06;12.70;39.10
41953;DHT22;63613;28.200;112.870;2023-12-22T08:20:35;13.10;38.90
41953;DHT22;63613;28.200;112.870;2023-12-22T08:23:04;14.80;35.80
41953;DHT22;63613;28.200;112.870;2023-12-22T08:25:34;16.00;34.10
41953;DHT22;63613;28.200;112.870;2023-12-22T08:28:04;16.50;33.80
41953;DHT22;63613;28.200;112.870;2023-12-22T08:30:33;16.80;33.90
41953;DHT22;63613;28.200;112.870;2023-12-22T08:33:02;16.90;33.60
41953;DHT22;63613;28.200;112.870;2023-12-22T08:35:31;17.10;33.40
41953;DHT22;63613;28.200;112.870;2023-12-22T08:38:02;17.10;33.70
41953;DHT22;63613;28.200;112.870;2023-12-22T08:40:50;17.00;33.90
41953;DHT22;63613;28.200;112.870;2023-12-22T08:43:19;16.90;34.20
41953;DHT22;63613;28.200;112.870;2023-12-22T08:45:48;16.30;35.00
41953;DHT22;63613;28.200;112.870;2023-12-22T08:48:19;15.20;36.60
41953;DHT22;63613;28.200;112.870;2023-12-22T08:50:48;14.70;36.80
41953;DHT22;63613;28.200;112.870;2023-12-22T08:53:17;14.30;37.80
41953;DHT22;63613;28.200;112.870;2023-12-22T08:55:46;14.10;37.90
41953;DHT22;63613;28.200;112.870;2023-12-22T08:58:16;14.10;37.60
41953;DHT22;63613;28.200;112.870;2023-12-22T09:00:46;13.90;38.00
41953;DHT22;63613;28.200;112.870;2023-12-22T09:03:15;13.70;38.50
41953;DHT22;63613;28.200;112.870;2023-12-22T09:05:45;13.50;38.50
41953;DHT22;63613;28.200;112.870;2023-12-22T09:08:14;13.40;38.80
41953;DHT22;63613;28.200;112.870;2023-12-22T09:10:44;13.20;38.50
41953;DHT22;63613;28.200;112.870;2023-12-22T09:13:13;13.00;38.50
41953;DHT22;63613;28.200;112.870;2023-12-22T09:15:42;12.90;38.40
41953;DHT22;63613;28.200;112.870;2023-12-22T09:18:14;12.90;38.30
41953;DHT22;63613;28.200;112.870;2023-12-22T09:20:44;12.70;38.70
41953;DHT22;63613;28.200;112.870;2023-12-22T09:23:14;12.70;39.00
41953;DHT22;63613;28.200;112.870;2023-12-22T09:25:43;12.50;39.00
41953;DHT22;63613;28.200;112.870;2023-12-22T09:28:12;12.40;38.70
41953;DHT22;63613;28.200;112.870;2023-12-22T09:30:41;12.40;38.40
41953;DHT22;63613;28.200;112.870;2023-12-22T09:33:11;12.30;38.10
41953;DHT22;63613;28.200;112.870;2023-12-22T09:35:41;12.20;37.90
41953;DHT22;63613;28.200;112.870;2023-12-22T09:38:11;12.10;37.70
41953;DHT22;63613;28.200;112.870;2023-12-22T09:40:41;12.10;37.70
41953;DHT22;63613;28.200;112.870;2023-12-22T09:43:10;12.00;37.50
41953;DHT22;63613;28.200;112.870;2023-12-22T09:45:45;11.90;37.30
41953;DHT22;63613;28.200;112.870;2023-12-22T09:48:17;11.80;36.90
41953;DHT22;63613;28.200;112.870;2023-12-22T09:50:48;11.80;36.90
41953;DHT22;63613;28.200;112.870;2023-12-22T09:53:17;11.60;36.90
41953;DHT22;63613;28.200;112.870;2023-12-22T09:55:50;11.60;37.30
41953;DHT22;63613;28.200;112.870;2023-12-22T09:58:20;11.50;37.30
41953;DHT22;63613;28.200;112.870;2023-12-22T10:00:50;11.40;37.50
41953;DHT22;63613;28.200;112.870;2023-12-22T10:03:20;11.30;37.80
41953;DHT22;63613;28.200;112.870;2023-12-22T10:05:51;11.30;38.10
41953;DHT22;63613;28.200;112.870;2023-12-22T10:08:21;11.20;38.30
41953;DHT22;63613;28.200;112.870;2023-12-22T10:10:51;11.20;38.70
41953;DHT22;63613;28.200;112.870;2023-12-22T10:13:20;11.10;39.10
41953;DHT22;63613;28.200;112.870;2023-12-22T10:15:52;11.10;39.40
41953;DHT22;63613;28.200;112.870;2023-12-22T10:18:22;11.10;39.60
41953;DHT22;63613;28.200;112.870;2023-12-22T10:20:52;11.00;40.10
41953;DHT22;63613;28.200;112.870;2023-12-22T10:23:21;11.00;40.30
41953;DHT22;63613;28.200;112.870;2023-12-22T10:25:51;10.90;40.50
41953;DHT22;63613;28.200;112.870;2023-12-22T10:28:21;10.90;40.80
41953;DHT22;63613;28.200;112.870;2023-12-22T10:30:53;10.90;41.00
41953;DHT22;63613;28.200;112.870;2023-12-22T10:33:23;10.90;41.00
41953;DHT22;63613;28.200;112.870;2023-12-22T10:35:54;10.80;41.30
41953;DHT22;63613;28.200;112.870;2023-12-22T10:38:25;10.80;41.30
41953;DHT22;63613;28.200;112.870;2023-12-22T10:40:54;10.80;41.20
41953;DHT22;63613;28.200;112.870;2023-12-22T10:43:23;10.80;41.10
41953;DHT22;63613;28.200;112.870;2023-12-22T10:45:53;10.70;41.10
41953;DHT22;63613;28.200;112.870;2023-12-22T10:48:26;10.70;41.20
41953;DHT22;63613;28.200;112.870;2023-12-22T10:50:55;10.70;41.30
41953;DHT22;63613;28.200;112.870;2023-12-22T10:53:24;10.70;41.50
41953;DHT22;63613;28.200;112.870;2023-12-22T10:55:54;10.70;41.50
41953;DHT22;63613;28.200;112.870;2023-12-22T10:58:23;10.60;41.40
41953;DHT22;63613;28.200;112.870;2023-12-22T11:00:56;10.60;41.50
41953;DHT22;63613;28.200;112.870;2023-12-22T11:03:28;10.60;41.80
41953;DHT22;63613;28.200;112.870;2023-12-22T11:05:59;10.50;42.00
41953;DHT22;63613;28.200;112.870;2023-12-22T11:08:31;10.50;41.90
41953;DHT22;63613;28.200;112.870;2023-12-22T11:11:11;10.50;42.00
41953;DHT22;63613;28.200;112.870;2023-12-22T11:13:43;10.40;41.90
41953;DHT22;63613;28.200;112.870;2023-12-22T11:16:13;10.40;41.90
41953;DHT22;63613;28.200;112.870;2023-12-22T11:18:43;10.40;42.40
41953;DHT22;63613;28.200;112.870;2023-12-22T11:21:14;10.40;42.90
41953;DHT22;63613;28.200;112.870;2023-12-22T11:23:46;10.40;43.90
41953;DHT22;63613;28.200;112.870;2023-12-22T11:26:18;10.40;44.10
41953;DHT22;63613;28.200;112.870;2023-12-22T11:28:48;10.40;45.30
41953;DHT22;63613;28.200;112.870;2023-12-22T11:31:19;10.40;47.20
41953;DHT22;63613;28.200;112.870;2023-12-22T11:33:50;10.40;48.00
41953;DHT22;63613;28.200;112.870;2023-12-22T11:36:20;10.40;48.50
41953;DHT22;63613;28.200;112.870;2023-12-22T11:38:52;10.40;49.30
41953;DHT22;63613;28.200;112.870;2023-12-22T11:41:26;10.40;50.60
41953;DHT22;63613;28.200;112.870;2023-12-22T11:43:55;10.40;50.20
41953;DHT22;63613;28.200;112.870;2023-12-22T11:46:26;10.40;50.70
41953;DHT22;63613;28.200;112.870;2023-12-22T11:48:57;10.40;50.60
41953;DHT22;63613;28.200;112.870;2023-12-22T11:51:32;10.30;50.50
41953;DHT22;63613;28.200;112.870;2023-12-22T11:54:03;10.40;50.20
41953;DHT22;63613;28.200;112.870;2023-12-22T11:56:32;10.40;49.50
41953;DHT22;63613;28.200;112.870;2023-12-22T11:59:04;10.30;50.10
41953;DHT22;63613;28.200;112.870;2023-12-22T12:01:39;10.30;50.70
41953;DHT22;63613;28.200;112.870;2023-12-22T12:04:08;10.30;51.00
41953;DHT22;63613;28.200;112.870;2023-12-22T12:06:56;10.30;50.70
41953;DHT22;63613;28.200;112.870;2023-12-22T12:09:45;10.30;50.50
41953;DHT22;63613;28.200;112.870;2023-12-22T12:12:15;10.20;50.40
41953;DHT22;63613;28.200;112.870;2023-12-22T12:14:48;10.20;50.40
41953;DHT22;63613;28.200;112.870;2023-12-22T12:17:19;10.20;51.00
41953;DHT22;63613;28.200;112.870;2023-12-22T12:19:49;10.20;50.60
41953;DHT22;63613;28.200;112.870;2023-12-22T12:22:22;10.20;50.50
41953;DHT22;63613;28.200;112.870;2023-12-22T12:24:53;10.20;51.20
41953;DHT22;63613;28.200;112.870;2023-12-22T12:27:22;10.10;49.80
41953;DHT22;63613;28.200;112.870;2023-12-22T12:29:51;10.00;47.80
41953;DHT22;63613;28.200;112.870;2023-12-22T12:32:25;10.00;46.50
41953;DHT22;63613;28.200;112.870;2023-12-22T12:34:54;9.90;45.80
41953;DHT22;63613;28.200;112.870;2023-12-22T12:37:24;9.90;45.50
41953;DHT22;63613;28.200;112.870;2023-12-22T12:39:57;9.90;45.40
41953;DHT22;63613;28.200;112.870;2023-12-22T12:42:31;9.90;45.00
41953;DHT22;63613;28.200;112.870;2023-12-22T12:45:00;9.80;44.20
41953;DHT22;63613;28.200;112.870;2023-12-22T12:47:31;9.90;43.80
41953;DHT22;63613;28.200;112.870;2023-12-22T12:50:01;9.80;43.50
41953;DHT22;63613;28.200;112.870;2023-12-22T12:52:32;9.80;43.10
41953;DHT22;63613;28.200;112.870;2023-12-22T12:55:03;9.80;42.90
41953;DHT22;63613;28.200;112.870;2023-12-22T12:57:32;9.70;42.80
41953;DHT22;63613;28.200;112.870;2023-12-22T13:00:30;9.80;42.60
41953;DHT22;63613;28.200;112.870;2023-12-22T13:03:03;9.80;42.70
41953;DHT22;63613;28.200;112.870;2023-12-22T13:05:34;9.70;42.70
41953;DHT22;63613;28.200;112.870;2023-12-22T13:08:12;9.70;42.40
41953;DHT22;63613;28.200;112.870;2023-12-22T13:10:43;9.70;42.60
41953;DHT22;63613;28.200;112.870;2023-12-22T13:13:13;9.70;42.10
41953;DHT22;63613;28.200;112.870;2023-12-22T13:15:44;9.60;41.70
41953;DHT22;63613;28.200;112.870;2023-12-22T13:18:13;9.60;41.80
41953;DHT22;63613;28.200;112.870;2023-12-22T13:20:42;9.60;41.80
41953;DHT22;63613;28.200;112.870;2023-12-22T13:23:16;9.60;42.00
41953;DHT22;63613;28.200;112.870;2023-12-22T13:25:48;9.60;41.80
41953;DHT22;63613;28.200;112.870;2023-12-22T13:28:36;9.60;41.80
41953;DHT22;63613;28.200;112.870;2023-12-22T13:31:12;9.50;41.70
41953;DHT22;63613;28.200;112.870;2023-12-22T13:33:42;9.50;41.60
41953;DHT22;63613;28.200;112.870;2023-12-22T13:36:33;9.50;41.30
41953;DHT22;63613;28.200;112.870;2023-12-22T13:39:06;9.50;41.20
41953;DHT22;63613;28.200;112.870;2023-12-22T13:41:41;9.50;41.40
41953;DHT22;63613;28.200;112.870;2023-12-22T13:44:14;9.50;41.70
41953;DHT22;63613;28.200;112.870;2023-12-22T13:46:44;9.40;41.80
41953;DHT22;63613;28.200;112.870;2023-12-22T13:49:15;9.50;41.50
41953;DHT22;63613;28.200;112.870;2023-12-22T13:51:46;9.40;41.90
41953;DHT22;63613;28.200;112.870;2023-12-22T13:54:15;9.40;41.90
41953;DHT22;63613;28.200;112.870;2023-12-22T13:56:46;9.40;41.50
41953;DHT22;63613;28.200;112.870;2023-12-22T13:59:17;9.40;41.70
41953;DHT22;63613;28.200;112.870;2023-12-22T14:01:59;9.40;41.50
41953;DHT22;63613;28.200;112.870;2023-12-22T14:04:28;9.40;41.70
41953;DHT22;63613;28.200;112.870;2023-12-22T14:07:18;9.40;42.00
41953;DHT22;63613;28.200;112.870;2023-12-22T14:09:47;9.40;41.50
41953;DHT22;63613;28.200;112.870;2023-12-22T14:12:16;9.40;41.50
41953;DHT22;63613;28.200;112.870;2023-12-22T14:14:45;9.40;41.40
41953;DHT22;63613;28.200;112.870;2023-12-22T14:17:14;9.40;41.30
41953;DHT22;63613;28.200;112.870;2023-12-22T14:19:44;9.40;41.30
41953;DHT22;63613;28.200;112.870;2023-12-22T14:22:13;9.40;41.10
41953;DHT22;63613;28.200;112.870;2023-12-22T14:24:42;9.30;41.50
41953;DHT22;63613;28.200;112.870;2023-12-22T14:27:12;9.30;40.70
41953;DHT22;63613;28.200;112.870;2023-12-22T14:29:41;9.20;40.00
41953;DHT22;63613;28.200;112.870;2023-12-22T14:32:11;9.20;39.80
41953;DHT22;63613;28.200;112.870;2023-12-22T14:34:42;9.10;39.50
41953;DHT22;63613;28.200;112.870;2023-12-22T14:37:12;9.10;39.10
41953;DHT22;63613;28.200;112.870;2023-12-22T14:39:44;9.10;38.80
41953;DHT22;63613;28.200;112.870;2023-12-22T14:42:15;9.10;38.70
41953;DHT22;63613;28.200;112.870;2023-12-22T14:44:44;9.10;38.50
41953;DHT22;63613;28.200;112.870;2023-12-22T14:47:13;9.10;38.50
41953;DHT22;63613;28.200;112.870;2023-12-22T14:49:43;9.10;38.40
41953;DHT22;63613;28.200;112.870;2023-12-22T14:52:12;9.00;38.40
41953;DHT22;63613;28.200;112.870;2023-12-22T14:55:00;9.00;38.50
41953;DHT22;63613;28.200;112.870;2023-12-22T14:57:30;9.10;38.80
41953;DHT22;63613;28.200;112.870;2023-12-22T15:00:20;9.00;39.30
41953;DHT22;63613;28.200;112.870;2023-12-22T15:02:49;9.00;39.30
41953;DHT22;63613;28.200;112.870;2023-12-22T15:05:21;9.10;39.60
41953;DHT22;63613;28.200;112.870;2023-12-22T15:07:51;9.00;39.70
41953;DHT22;63613;28.200;112.870;2023-12-22T15:10:21;9.00;39.70
41953;DHT22;63613;28.200;112.870;2023-12-22T15:12:50;9.00;39.60
41953;DHT22;63613;28.200;112.870;2023-12-22T15:15:19;9.00;39.70
41953;DHT22;63613;28.200;112.870;2023-12-22T15:17:50;9.00;39.80
41953;DHT22;63613;28.200;112.870;2023-12-22T15:20:19;9.00;39.80
41953;DHT22;63613;28.200;112.870;2023-12-22T15:23:26;9.00;39.60
41953;DHT22;63613;28.200;112.870;2023-12-22T15:25:58;8.90;39.70
41953;DHT22;63613;28.200;112.870;2023-12-22T15:28:28;9.00;39.60
41953;DHT22;63613;28.200;112.870;2023-12-22T15:30:57;8.90;39.40
41953;DHT22;63613;28.200;112.870;2023-12-22T15:33:26;9.00;39.60
41953;DHT22;63613;28.200;112.870;2023-12-22T15:35:55;8.90;39.50